sensor_id;sensor_type;location;lat;lon;timestamp;pressure;altitude;pressure_sealevel;temperature;humidity
44079;BME280;29744;49.078;12.878;2024-01-06T00:02:34;95154.66;;;14.89;36.27
44079;BME280;29744;49.078;12.878;2024-01-06T00:07:34;95151.53;;;14.87;36.37
44079;BME280;29744;49.078;12.878;2024-01-06T00:12:35;95158.06;;;14.86;36.46
44079;BME280;29744;49.078;12.878;2024-01-06T00:17:35;95157.66;;;14.83;36.50
44079;BME280;29744;49.078;12.878;2024-01-06T00:22:35;95155.31;;;14.82;36.55
44079;BME280;29744;49.078;12.878;2024-01-06T00:27:35;95150.28;;;14.80;36.34
44079;BME280;29744;49.078;12.878;2024-01-06T00:32:36;95141.75;;;14.78;36.26
44079;BME280;29744;49.078;12.878;2024-01-06T00:37:36;95148.28;;;14.77;36.17
44079;BME280;29744;49.078;12.878;2024-01-06T00:42:36;95142.47;;;14.75;36.27
44079;BME280;29744;49.078;12.878;2024-01-06T00:47:37;95151.69;;;14.74;36.16
44079;BME280;29744;49.078;12.878;2024-01-06T00:52:37;95154.75;;;14.73;36.27
44079;BME280;29744;49.078;12.878;2024-01-06T00:57:37;95157.03;;;14.71;36.67
44079;BME280;29744;49.078;12.878;2024-01-06T01:02:38;95158.94;;;14.70;36.42
44079;BME280;29744;49.078;12.878;2024-01-06T01:07:38;95154.25;;;14.67;36.49
44079;BME280;29744;49.078;12.878;2024-01-06T01:12:39;95158.88;;;14.67;36.87
44079;BME280;29744;49.078;12.878;2024-01-06T01:17:39;95158.44;;;14.65;36.57
44079;BME280;29744;49.078;12.878;2024-01-06T01:22:39;95169.59;;;14.63;36.63
44079;BME280;29744;49.078;12.878;2024-01-06T01:27:40;95172.63;;;14.62;36.91
44079;BME280;29744;49.078;12.878;2024-01-06T01:32:40;95176.47;;;14.61;36.63
44079;BME280;29744;49.078;12.878;2024-01-06T01:37:40;95174.91;;;14.60;36.83
44079;BME280;29744;49.078;12.878;2024-01-06T01:42:42;95189.53;;;14.59;36.64
44079;BME280;29744;49.078;12.878;2024-01-06T01:47:43;95187.97;;;14.58;36.81
44079;BME280;29744;49.078;12.878;2024-01-06T01:52:46;95185.63;;;14.56;36.69
44079;BME280;29744;49.078;12.878;2024-01-06T01:57:46;95166.31;;;14.54;36.62
44079;BME280;29744;49.078;12.878;2024-01-06T02:02:47;95159.34;;;14.53;36.58
44079;BME280;29744;49.078;12.878;2024-01-06T02:07:47;95158.94;;;14.51;36.99
44079;BME280;29744;49.078;12.878;2024-01-06T02:12:51;95154.31;;;14.52;37.03
44079;BME280;29744;49.078;12.878;2024-01-06T02:17:51;95157.38;;;14.50;36.57
44079;BME280;29744;49.078;12.878;2024-01-06T02:22:52;95155.81;;;14.49;37.15
44079;BME280;29744;49.078;12.878;2024-01-06T02:27:52;95160.78;;;14.47;36.83
44079;BME280;29744;49.078;12.878;2024-01-06T02:32:52;95155.72;;;14.45;37.03
44079;BME280;29744;49.078;12.878;2024-01-06T02:37:52;95156.88;;;14.44;36.80
44079;BME280;29744;49.078;12.878;2024-01-06T02:42:53;95161.47;;;14.44;37.16
44079;BME280;29744;49.078;12.878;2024-01-06T02:47:53;95151.81;;;14.43;36.97
44079;BME280;29744;49.078;12.878;2024-01-06T02:52:54;95153.75;;;14.42;37.17
44079;BME280;29744;49.078;12.878;2024-01-06T02:57:54;95151.38;;;14.41;36.82
44079;BME280;29744;49.078;12.878;2024-01-06T03:02:55;95150.97;;;14.39;36.76
44079;BME280;29744;49.078;12.878;2024-01-06T03:07:55;95149.06;;;14.39;37.00
44079;BME280;29744;49.078;12.878;2024-01-06T03:12:55;95150.19;;;14.38;36.66
44079;BME280;29744;49.078;12.878;2024-01-06T03:17:55;95162.09;;;14.37;37.01
44079;BME280;29744;49.078;12.878;2024-01-06T03:22:56;95144.72;;;14.35;36.93
44079;BME280;29744;49.078;12.878;2024-01-06T03:27:56;95148.97;;;14.36;37.31
44079;BME280;29744;49.078;12.878;2024-01-06T03:32:56;95154.72;;;14.34;37.18
44079;BME280;29744;49.078;12.878;2024-01-06T03:37:57;95156.63;;;14.34;36.93
44079;BME280;29744;49.078;12.878;2024-01-06T03:42:57;95152.38;;;14.33;37.13
44079;BME280;29744;49.078;12.878;2024-01-06T03:47:57;95157.78;;;14.33;36.95
44079;BME280;29744;49.078;12.878;2024-01-06T03:52:57;95154.66;;;14.31;36.74
44079;BME280;29744;49.078;12.878;2024-01-06T03:57:58;95157.34;;;14.31;37.42
44079;BME280;29744;49.078;12.878;2024-01-06T04:02:58;95152.31;;;14.29;37.03
44079;BME280;29744;49.078;12.878;2024-01-06T04:07:58;95161.53;;;14.28;37.07
44079;BME280;29744;49.078;12.878;2024-01-06T04:12:59;95151.88;;;14.27;37.09
44079;BME280;29744;49.078;12.878;2024-01-06T04:18:02;95151.88;;;14.27;37.31
44079;BME280;29744;49.078;12.878;2024-01-06T04:23:03;95163.00;;;14.26;37.32
44079;BME280;29744;49.078;12.878;2024-01-06T04:28:04;95158.75;;;14.25;37.00
44079;BME280;29744;49.078;12.878;2024-01-06T04:33:04;95166.84;;;14.25;36.86
44079;BME280;29744;49.078;12.878;2024-01-06T04:38:04;95172.22;;;14.25;37.04
44079;BME280;29744;49.078;12.878;2024-01-06T04:43:05;95176.50;;;14.26;37.17
44079;BME280;29744;49.078;12.878;2024-01-06T04:48:05;95168.84;;;14.28;37.15
44079;BME280;29744;49.078;12.878;2024-01-06T04:53:06;95181.63;;;14.31;37.06
44079;BME280;29744;49.078;12.878;2024-01-06T04:58:06;95187.88;;;14.35;37.33
44079;BME280;29744;49.078;12.878;2024-01-06T05:03:06;95193.00;;;14.40;37.21
44079;BME280;29744;49.078;12.878;2024-01-06T05:08:07;95196.63;;;14.47;37.33
44079;BME280;29744;49.078;12.878;2024-01-06T05:13:07;95199.47;;;14.55;37.25
44079;BME280;29744;49.078;12.878;2024-01-06T05:18:08;95194.28;;;14.65;36.94
44079;BME280;29744;49.078;12.878;2024-01-06T05:23:08;95196.78;;;14.74;36.88
44079;BME280;29744;49.078;12.878;2024-01-06T05:28:08;95206.25;;;14.83;37.01
44079;BME280;29744;49.078;12.878;2024-01-06T05:33:10;95205.66;;;14.94;37.28
44079;BME280;29744;49.078;12.878;2024-01-06T05:38:10;95218.63;;;15.04;36.93
44079;BME280;29744;49.078;12.878;2024-01-06T05:43:10;95218.75;;;15.11;36.88
44079;BME280;29744;49.078;12.878;2024-01-06T05:48:11;95233.97;;;15.19;37.05
44079;BME280;29744;49.078;12.878;2024-01-06T05:53:11;95226.34;;;15.25;36.60
44079;BME280;29744;49.078;12.878;2024-01-06T05:58:14;95238.44;;;15.31;36.64
44079;BME280;29744;49.078;12.878;2024-01-06T06:03:14;95243.91;;;15.34;36.55
44079;BME280;29744;49.078;12.878;2024-01-06T06:08:15;95242.06;;;15.38;36.32
44079;BME280;29744;49.078;12.878;2024-01-06T06:13:15;95248.66;;;15.41;36.23
44079;BME280;29744;49.078;12.878;2024-01-06T06:18:15;95248.31;;;15.42;36.72
44079;BME280;29744;49.078;12.878;2024-01-06T06:23:16;95255.63;;;15.42;36.52
44079;BME280;29744;49.078;12.878;2024-01-06T06:28:16;95266.06;;;15.43;36.18
44079;BME280;29744;49.078;12.878;2024-01-06T06:33:16;95267.22;;;15.42;36.47
44079;BME280;29744;49.078;12.878;2024-01-06T06:38:17;95270.69;;;15.43;36.64
44079;BME280;29744;49.078;12.878;2024-01-06T06:43:17;95264.50;;;15.42;36.30
44079;BME280;29744;49.078;12.878;2024-01-06T06:48:18;95267.22;;;15.42;36.31
44079;BME280;29744;49.078;12.878;2024-01-06T06:53:18;95269.13;;;15.42;36.56
44079;BME280;29744;49.078;12.878;2024-01-06T06:58:18;95277.59;;;15.40;36.37
44079;BME280;29744;49.078;12.878;2024-01-06T07:03:19;95280.66;;;15.39;36.22
44079;BME280;29744;49.078;12.878;2024-01-06T07:08:19;95282.16;;;15.36;36.17
44079;BME280;29744;49.078;12.878;2024-01-06T07:13:19;95292.97;;;15.36;36.37
44079;BME280;29744;49.078;12.878;2024-01-06T07:18:19;95304.91;;;15.35;36.42
44079;BME280;29744;49.078;12.878;2024-01-06T07:23:23;95309.09;;;15.33;36.54
44079;BME280;29744;49.078;12.878;2024-01-06T07:28:23;95317.56;;;15.31;36.42
44079;BME280;29744;49.078;12.878;2024-01-06T07:33:24;95313.66;;;15.29;36.38
44079;BME280;29744;49.078;12.878;2024-01-06T07:38:25;95322.88;;;15.28;36.54
44079;BME280;29744;49.078;12.878;2024-01-06T07:43:25;95328.22;;;15.24;36.08
44079;BME280;29744;49.078;12.878;2024-01-06T07:48:26;95339.38;;;15.23;36.33
44079;BME280;29744;49.078;12.878;2024-01-06T07:53:26;95348.59;;;15.22;36.19
44079;BME280;29744;49.078;12.878;2024-01-06T07:58:26;95350.09;;;15.19;36.41
44079;BME280;29744;49.078;12.878;2024-01-06T08:03:28;95341.22;;;15.19;36.42
44079;BME280;29744;49.078;12.878;2024-01-06T08:08:28;95357.00;;;15.17;36.55
44079;BME280;29744;49.078;12.878;2024-01-06T08:13:28;95354.28;;;15.17;36.47
44079;BME280;29744;49.078;12.878;2024-01-06T08:18:28;95355.41;;;15.16;36.12
44079;BME280;29744;49.078;12.878;2024-01-06T08:23:29;95365.44;;;15.15;36.40
44079;BME280;29744;49.078;12.878;2024-01-06T08:28:29;95378.16;;;15.14;36.63
44079;BME280;29744;49.078;12.878;2024-01-06T08:33:30;95380.06;;;15.14;36.25
44079;BME280;29744;49.078;12.878;2024-01-06T08:38:30;95381.22;;;15.13;36.13
44079;BME280;29744;49.078;12.878;2024-01-06T08:43:30;95386.63;;;15.13;36.71
44079;BME280;29744;49.078;12.878;2024-01-06T08:48:31;95388.53;;;15.12;36.83
44079;BME280;29744;49.078;12.878;2024-01-06T08:53:31;95394.72;;;15.13;36.36
44079;BME280;29744;49.078;12.878;2024-01-06T08:58:31;95390.44;;;15.12;36.64
44079;BME280;29744;49.078;12.878;2024-01-06T09:03:32;95378.88;;;15.11;36.42
44079;BME280;29744;49.078;12.878;2024-01-06T09:08:32;95378.44;;;15.09;36.59
44079;BME280;29744;49.078;12.878;2024-01-06T09:13:32;95384.97;;;15.08;36.26
44079;BME280;29744;49.078;12.878;2024-01-06T09:18:33;95380.72;;;15.07;36.30
44079;BME280;29744;49.078;12.878;2024-01-06T09:23:33;95389.16;;;15.06;36.21
44079;BME280;29744;49.078;12.878;2024-01-06T09:28:33;95397.25;;;15.06;36.47
44079;BME280;29744;49.078;12.878;2024-01-06T09:33:34;95398.41;;;15.05;36.20
44079;BME280;29744;49.078;12.878;2024-01-06T09:38:34;95403.00;;;15.04;36.40
44079;BME280;29744;49.078;12.878;2024-01-06T09:43:34;95404.16;;;15.03;36.57
44079;BME280;29744;49.078;12.878;2024-01-06T09:48:41;95403.34;;;15.03;36.39
44079;BME280;29744;49.078;12.878;2024-01-06T09:54:04;95403.25;;;14.99;36.77
44079;BME280;29744;49.078;12.878;2024-01-06T09:59:08;95409.44;;;15.00;36.58
44079;BME280;29744;49.078;12.878;2024-01-06T10:04:08;95413.25;;;14.99;36.85
44079;BME280;29744;49.078;12.878;2024-01-06T10:09:08;95414.41;;;14.98;36.76
44079;BME280;29744;49.078;12.878;2024-01-06T10:14:09;95407.78;;;14.95;36.71
44079;BME280;29744;49.078;12.878;2024-01-06T10:19:09;95403.53;;;14.94;36.53
44079;BME280;29744;49.078;12.878;2024-01-06T10:24:10;95393.84;;;14.93;36.65
44079;BME280;29744;49.078;12.878;2024-01-06T10:29:10;95403.09;;;14.92;36.51
44079;BME280;29744;49.078;12.878;2024-01-06T10:34:11;95403.09;;;14.92;36.73
44079;BME280;29744;49.078;12.878;2024-01-06T10:39:11;95400.75;;;14.91;36.66
44079;BME280;29744;49.078;12.878;2024-01-06T10:44:15;95398.38;;;14.89;36.81
44079;BME280;29744;49.078;12.878;2024-01-06T10:49:17;95396.47;;;14.90;36.97
44079;BME280;29744;49.078;12.878;2024-01-06T10:54:17;95399.53;;;14.88;36.80
44079;BME280;29744;49.078;12.878;2024-01-06T10:59:21;95398.75;;;14.88;36.42
44079;BME280;29744;49.078;12.878;2024-01-06T11:04:25;95400.22;;;14.85;36.75
44079;BME280;29744;49.078;12.878;2024-01-06T11:09:29;95399.00;;;14.82;36.76
44079;BME280;29744;49.078;12.878;2024-01-06T11:14:37;95403.63;;;14.82;36.60
44079;BME280;29744;49.078;12.878;2024-01-06T11:24:38;95415.13;;;14.79;36.63
44079;BME280;29744;49.078;12.878;2024-01-06T11:29:44;95393.09;;;14.77;36.89
44079;BME280;29744;49.078;12.878;2024-01-06T11:34:49;95392.66;;;14.75;36.60
44079;BME280;29744;49.078;12.878;2024-01-06T11:39:50;95383.00;;;14.74;36.84
44079;BME280;29744;49.078;12.878;2024-01-06T11:44:51;95382.22;;;14.73;36.57
44079;BME280;29744;49.078;12.878;2024-01-06T11:49:54;95382.56;;;14.72;36.82
44079;BME280;29744;49.078;12.878;2024-01-06T11:54:55;95374.03;;;14.70;36.81
44079;BME280;29744;49.078;12.878;2024-01-06T11:59:56;95367.41;;;14.67;37.21
44079;BME280;29744;49.078;12.878;2024-01-06T12:04:56;95365.84;;;14.66;37.20
44079;BME280;29744;49.078;12.878;2024-01-06T12:10:03;95367.00;;;14.65;37.07
44079;BME280;29744;49.078;12.878;2024-01-06T12:15:05;95369.25;;;14.63;36.86
44079;BME280;29744;49.078;12.878;2024-01-06T12:20:06;95373.09;;;14.62;36.88
44079;BME280;29744;49.078;12.878;2024-01-06T12:25:09;95369.59;;;14.62;37.29
44079;BME280;29744;49.078;12.878;2024-01-06T12:30:17;95375.34;;;14.60;37.09
44079;BME280;29744;49.078;12.878;2024-01-06T12:35:20;95375.25;;;14.57;37.02
44079;BME280;29744;49.078;12.878;2024-01-06T12:40:21;95367.94;;;14.57;37.00
44079;BME280;29744;49.078;12.878;2024-01-06T12:45:21;95371.78;;;14.56;36.82
44079;BME280;29744;49.078;12.878;2024-01-06T12:50:22;95369.44;;;14.55;36.91
44079;BME280;29744;49.078;12.878;2024-01-06T12:55:22;95370.56;;;14.54;36.84
44079;BME280;29744;49.078;12.878;2024-01-06T13:00:23;95362.81;;;14.52;37.29
44079;BME280;29744;49.078;12.878;2024-01-06T13:05:23;95367.44;;;14.52;36.93
44079;BME280;29744;49.078;12.878;2024-01-06T13:10:23;95366.66;;;14.51;37.00
44079;BME280;29744;49.078;12.878;2024-01-06T13:15:24;95361.94;;;14.48;37.41
44079;BME280;29744;49.078;12.878;2024-01-06T13:20:24;95364.66;;;14.48;37.39
44079;BME280;29744;49.078;12.878;2024-01-06T13:25:24;95361.94;;;14.48;37.36
44079;BME280;29744;49.078;12.878;2024-01-06T13:30:25;95366.91;;;14.46;37.29
44079;BME280;29744;49.078;12.878;2024-01-06T13:35:26;95372.31;;;14.46;37.14
44079;BME280;29744;49.078;12.878;2024-01-06T13:40:26;95376.13;;;14.45;37.14
44079;BME280;29744;49.078;12.878;2024-01-06T13:45:26;95369.19;;;14.44;37.16
44079;BME280;29744;49.078;12.878;2024-01-06T13:50:27;95375.69;;;14.43;37.45
44079;BME280;29744;49.078;12.878;2024-01-06T13:55:27;95384.94;;;14.42;36.99
44079;BME280;29744;49.078;12.878;2024-01-06T14:00:27;95380.66;;;14.41;37.09
44079;BME280;29744;49.078;12.878;2024-01-06T14:05:28;95392.56;;;14.40;37.29
44079;BME280;29744;49.078;12.878;2024-01-06T14:10:28;95391.78;;;14.39;36.98
44079;BME280;29744;49.078;12.878;2024-01-06T14:15:30;95396.41;;;14.39;37.14
44079;BME280;29744;49.078;12.878;2024-01-06T14:20:31;95389.44;;;14.38;37.54
44079;BME280;29744;49.078;12.878;2024-01-06T14:25:31;95402.16;;;14.37;36.99
44079;BME280;29744;49.078;12.878;2024-01-06T14:30:32;95395.19;;;14.36;37.03
44079;BME280;29744;49.078;12.878;2024-01-06T14:35:32;95407.09;;;14.35;37.53
44079;BME280;29744;49.078;12.878;2024-01-06T14:40:33;95409.03;;;14.35;37.21
44079;BME280;29744;49.078;12.878;2024-01-06T14:45:33;95412.84;;;14.34;37.16
44079;BME280;29744;49.078;12.878;2024-01-06T14:50:33;95418.25;;;14.34;37.08
44079;BME280;29744;49.078;12.878;2024-01-06T14:55:34;95415.09;;;14.32;37.16
44079;BME280;29744;49.078;12.878;2024-01-06T15:00:37;95417.81;;;14.32;37.37
44079;BME280;29744;49.078;12.878;2024-01-06T15:05:37;95418.94;;;14.31;37.31
44079;BME280;29744;49.078;12.878;2024-01-06T15:10:38;95425.47;;;14.30;37.21
44079;BME280;29744;49.078;12.878;2024-01-06T15:15:39;95428.50;;;14.28;37.15
44079;BME280;29744;49.078;12.878;2024-01-06T15:20:39;95430.41;;;14.28;37.63
44079;BME280;29744;49.078;12.878;2024-01-06T15:25:41;95423.44;;;14.27;37.36
44079;BME280;29744;49.078;12.878;2024-01-06T15:30:44;95436.94;;;14.27;37.32
44079;BME280;29744;49.078;12.878;2024-01-06T15:35:44;95430.31;;;14.24;37.61
44079;BME280;29744;49.078;12.878;2024-01-06T15:40:45;95431.44;;;14.23;37.59
44079;BME280;29744;49.078;12.878;2024-01-06T15:45:45;95433.38;;;14.23;37.06
44079;BME280;29744;49.078;12.878;2024-01-06T15:50:45;95439.84;;;14.22;37.52
44079;BME280;29744;49.078;12.878;2024-01-06T15:55:46;95442.56;;;14.22;37.32
44079;BME280;29744;49.078;12.878;2024-01-06T16:00:46;95437.50;;;14.20;37.19
44079;BME280;29744;49.078;12.878;2024-01-06T16:05:47;95440.97;;;14.21;37.68
44079;BME280;29744;49.078;12.878;2024-01-06T16:10:47;95439.41;;;14.19;37.62
44079;BME280;29744;49.078;12.878;2024-01-06T16:15:47;95439.84;;;14.22;37.15
44079;BME280;29744;49.078;12.878;2024-01-06T16:20:48;95440.31;;;14.24;37.44
44079;BME280;29744;49.078;12.878;2024-01-06T16:25:49;95436.59;;;14.28;37.43
44079;BME280;29744;49.078;12.878;2024-01-06T16:30:49;95439.81;;;14.34;37.46
44079;BME280;29744;49.078;12.878;2024-01-06T16:35:49;95450.34;;;14.39;37.52
44079;BME280;29744;49.078;12.878;2024-01-06T16:40:49;95452.88;;;14.47;37.58
44079;BME280;29744;49.078;12.878;2024-01-06T16:45:50;95453.50;;;14.57;37.43
44079;BME280;29744;49.078;12.878;2024-01-06T16:50:51;95456.03;;;14.65;37.59
44079;BME280;29744;49.078;12.878;2024-01-06T16:55:51;95464.41;;;14.76;37.38
44079;BME280;29744;49.078;12.878;2024-01-06T17:00:51;95455.00;;;14.86;37.56
44079;BME280;29744;49.078;12.878;2024-01-06T17:05:52;95462.56;;;14.96;37.52
44079;BME280;29744;49.078;12.878;2024-01-06T17:10:52;95467.81;;;15.04;36.93
44079;BME280;29744;49.078;12.878;2024-01-06T17:15:52;95470.69;;;15.11;37.16
44079;BME280;29744;49.078;12.878;2024-01-06T17:20:53;95472.41;;;15.20;37.11
44079;BME280;29744;49.078;12.878;2024-01-06T17:25:53;95479.47;;;15.24;37.14
44079;BME280;29744;49.078;12.878;2024-01-06T17:30:53;95482.69;;;15.30;36.95
44079;BME280;29744;49.078;12.878;2024-01-06T17:35:54;95487.38;;;15.33;37.19
44079;BME280;29744;49.078;12.878;2024-01-06T17:40:55;95485.91;;;15.35;37.21
44079;BME280;29744;49.078;12.878;2024-01-06T17:45:55;95490.16;;;15.36;37.03
44079;BME280;29744;49.078;12.878;2024-01-06T17:50:56;95494.06;;;15.39;36.64
44079;BME280;29744;49.078;12.878;2024-01-06T17:55:56;95490.25;;;15.40;36.50
44079;BME280;29744;49.078;12.878;2024-01-06T18:00:56;95487.53;;;15.40;36.44
44079;BME280;29744;49.078;12.878;2024-01-06T18:05:57;95488.31;;;15.40;36.70
44079;BME280;29744;49.078;12.878;2024-01-06T18:10:57;95481.34;;;15.39;36.86
44079;BME280;29744;49.078;12.878;2024-01-06T18:15:57;95487.88;;;15.38;36.58
44079;BME280;29744;49.078;12.878;2024-01-06T18:20:58;95493.28;;;15.38;36.64
44079;BME280;29744;49.078;12.878;2024-01-06T18:25:58;95498.69;;;15.38;36.27
44079;BME280;29744;49.078;12.878;2024-01-06T18:30:58;95502.88;;;15.36;36.55
44079;BME280;29744;49.078;12.878;2024-01-06T18:35:59;95493.22;;;15.35;36.57
44079;BME280;29744;49.078;12.878;2024-01-06T18:41:00;95498.19;;;15.33;36.41
44079;BME280;29744;49.078;12.878;2024-01-06T18:46:01;95491.22;;;15.32;36.48
44079;BME280;29744;49.078;12.878;2024-01-06T18:51:01;95498.09;;;15.29;36.60
44079;BME280;29744;49.078;12.878;2024-01-06T18:56:02;95494.19;;;15.27;36.51
44079;BME280;29744;49.078;12.878;2024-01-06T19:01:02;95495.66;;;15.24;36.38
44079;BME280;29744;49.078;12.878;2024-01-06T19:06:02;95495.66;;;15.24;36.54
44079;BME280;29744;49.078;12.878;2024-01-06T19:11:03;95496.03;;;15.23;36.44
44079;BME280;29744;49.078;12.878;2024-01-06T19:16:05;95490.63;;;15.23;36.71
44079;BME280;29744;49.078;12.878;2024-01-06T19:21:05;95499.06;;;15.21;36.51
44079;BME280;29744;49.078;12.878;2024-01-06T19:26:07;95496.38;;;15.21;36.81
44079;BME280;29744;49.078;12.878;2024-01-06T19:31:07;95497.50;;;15.20;36.27
44079;BME280;29744;49.078;12.878;2024-01-06T19:36:11;95494.81;;;15.20;36.79
44079;BME280;29744;49.078;12.878;2024-01-06T19:41:11;95492.44;;;15.19;36.39
44079;BME280;29744;49.078;12.878;2024-01-06T19:46:12;95492.03;;;15.17;36.60
44079;BME280;29744;49.078;12.878;2024-01-06T19:51:12;95499.34;;;15.16;36.39
44079;BME280;29744;49.078;12.878;2024-01-06T19:56:16;95485.06;;;15.16;36.63
44079;BME280;29744;49.078;12.878;2024-01-06T20:01:16;95483.47;;;15.14;36.47
44079;BME280;29744;49.078;12.878;2024-01-06T20:06:16;95485.75;;;15.12;36.43
44079;BME280;29744;49.078;12.878;2024-01-06T20:11:17;95482.25;;;15.12;36.31
44079;BME280;29744;49.078;12.878;2024-01-06T20:16:18;95480.69;;;15.11;36.63
44079;BME280;29744;49.078;12.878;2024-01-06T20:21:18;95477.22;;;15.10;36.22
44079;BME280;29744;49.078;12.878;2024-01-06T20:26:18;95472.50;;;15.07;36.84
44079;BME280;29744;49.078;12.878;2024-01-06T20:31:19;95479.81;;;15.07;36.51
44079;BME280;29744;49.078;12.878;2024-01-06T20:36:19;95474.44;;;15.07;36.63
44079;BME280;29744;49.078;12.878;2024-01-06T20:41:21;95468.25;;;15.06;36.46
44079;BME280;29744;49.078;12.878;2024-01-06T20:46:21;95474.44;;;15.07;36.51
44079;BME280;29744;49.078;12.878;2024-01-06T20:51:24;95476.00;;;15.08;36.26
44079;BME280;29744;49.078;12.878;2024-01-06T20:56:24;95468.25;;;15.06;36.59
44079;BME280;29744;49.078;12.878;2024-01-06T21:01:24;95469.03;;;15.07;36.67
44079;BME280;29744;49.078;12.878;2024-01-06T21:06:25;95475.22;;;15.07;36.40
44079;BME280;29744;49.078;12.878;2024-01-06T21:11:26;95475.22;;;15.07;36.75
44079;BME280;29744;49.078;12.878;2024-01-06T21:16:27;95473.28;;;15.08;36.58
44079;BME280;29744;49.078;12.878;2024-01-06T21:21:27;95476.00;;;15.08;36.56
44079;BME280;29744;49.078;12.878;2024-01-06T21:26:27;95471.38;;;15.08;36.68
44079;BME280;29744;49.078;12.878;2024-01-06T21:31:32;95467.91;;;15.08;36.66
44079;BME280;29744;49.078;12.878;2024-01-06T21:36:33;95466.31;;;15.07;36.41
44079;BME280;29744;49.078;12.878;2024-01-06T21:41:33;95465.53;;;15.06;36.38
44079;BME280;29744;49.078;12.878;2024-01-06T21:46:36;95462.84;;;15.06;36.89
44079;BME280;29744;49.078;12.878;2024-01-06T21:51:51;95455.44;;;15.03;36.72
44079;BME280;29744;49.078;12.878;2024-01-06T21:56:51;95453.88;;;15.02;36.46
44079;BME280;29744;49.078;12.878;2024-01-06T22:01:52;95468.94;;;15.03;36.81
44079;BME280;29744;49.078;12.878;2024-01-06T22:06:52;95465.78;;;15.01;36.76
44079;BME280;29744;49.078;12.878;2024-01-06T22:11:53;95473.88;;;15.01;36.62
44079;BME280;29744;49.078;12.878;2024-01-06T22:16:53;95470.41;;;15.01;36.74
44079;BME280;29744;49.078;12.878;2024-01-06T22:21:53;95469.97;;;14.99;36.84
44079;BME280;29744;49.078;12.878;2024-01-06T22:26:54;95470.31;;;14.97;36.43
44079;BME280;29744;49.078;12.878;2024-01-06T22:31:54;95466.84;;;14.97;36.39
44079;BME280;29744;49.078;12.878;2024-01-06T22:36:55;95462.56;;;14.96;36.85
44079;BME280;29744;49.078;12.878;2024-01-06T22:41:57;95463.69;;;14.95;36.46
44079;BME280;29744;49.078;12.878;2024-01-06T22:46:57;95469.78;;;14.92;36.74
44079;BME280;29744;49.078;12.878;2024-01-06T22:51:57;95467.44;;;14.90;36.38
44079;BME280;29744;49.078;12.878;2024-01-06T22:56:58;95467.78;;;14.89;36.94
44079;BME280;29744;49.078;12.878;2024-01-06T23:01:58;95474.31;;;14.88;36.52
44079;BME280;29744;49.078;12.878;2024-01-06T23:06:58;95470.41;;;14.85;36.96
44079;BME280;29744;49.078;12.878;2024-01-06T23:11:59;95475.38;;;14.83;36.86
44079;BME280;29744;49.078;12.878;2024-01-06T23:16:59;95484.59;;;14.82;36.59
44079;BME280;29744;49.078;12.878;2024-01-06T23:21:59;95485.28;;;14.79;36.49
44079;BME280;29744;49.078;12.878;2024-01-06T23:27:00;95489.91;;;14.78;36.58
44079;BME280;29744;49.078;12.878;2024-01-06T23:32:00;95486.00;;;14.76;36.85
44079;BME280;29744;49.078;12.878;2024-01-06T23:37:00;95484.41;;;14.75;36.63
44079;BME280;29744;49.078;12.878;2024-01-06T23:42:01;95492.06;;;14.73;36.74
44079;BME280;29744;49.078;12.878;2024-01-06T23:47:01;95494.00;;;14.72;36.93
44079;BME280;29744;49.078;12.878;2024-01-06T23:52:02;95499.75;;;14.71;36.80
44079;BME280;29744;49.078;12.878;2024-01-06T23:57:02;95491.22;;;14.69;36.85
